Overview Statistics Trail Chart Weather Telemetry Raw packets
 

This is the latest recevied weather packets stored in our database for station/object IZ1HMT-3. If no packets are shown the sender has not sent any weather packets the latest 10 day(s).

<< 1 2 3 4 >>
Time Temp. Humidity Pressure Rain* Wind** Luminosity Snow
1788678526 34.44° C 47% 1021 hPa - - - -
1788677922 33.33° C 49% 1021 hPa - - - -
1788639411 27.22° C 62% 1019.5 hPa - - - -
1788638807 27.78° C 62% 1019.4 hPa - - - -
1788637600 27.78° C 61% 1019.4 hPa - - - -
1788636996 27.78° C 60% 1019.2 hPa - - - -
1788636393 28.33° C 60% 1019.1 hPa - - - -
1788635789 28.33° C 59% 1019.1 hPa - - - -
1788635185 28.89° C 59% 1019.1 hPa - - - -
1788634582 28.89° C 59% 1019 hPa - - - -
1788633375 28.89° C 58% 1018.8 hPa - - - -
1788632771 28.89° C 58% 1018.5 hPa - - - -
1788632167 29.44° C 58% 1018.4 hPa - - - -
1788631564 29.44° C 59% 1018.3 hPa - - - -
1788629753 29.44° C 58% 1018.2 hPa - - - -
1788629149 29.44° C 58% 1018.2 hPa - - - -
1788627946 30° C 57% 1018.1 hPa - - - -
1788627338 30° C 56% 1018 hPa - - - -
1788626739 30° C 56% 1018 hPa - - - -
1788624924 30.56° C 55% 1018 hPa - - - -
1788624320 31.11° C 54% 1018.1 hPa - - - -
1788623716 31.11° C 54% 1018.1 hPa - - - -
1788622513 31.11° C 53% 1018.3 hPa - - - -
1788621903 31.11° C 54% 1018.4 hPa - - - -
1788620711 31.11° C 53% 1018.4 hPa - - - -

* Rain since midnight (hover to see other rain measurements)
** Current wind speed in m/s (hover to see current wind gust speed)